Time;durP1;ratioP1;P1;durP2;ratioP2;P2;SDS_P1;SDS_P2;PMS_P1;PMS_P2;Temp;Humidity;BMP_temperature;BMP_pressure;BME280_temperature;BME280_humidity;BME280_pressure;Samples;Min_cycle;Max_cycle;Signal;HPM_P1;HPM_P2
2023/02/12 00:01:33;;;;;;;;;;;;;;;;;;8325538;28;27113;-75
2023/02/12 00:05:33;;;;;;;;;;;;;;;;;;8324305;28;28133;-76
2023/02/12 00:09:33;;;;;;;;;;;;;;;;;;8319671;28;27621;-76
2023/02/12 00:13:33;;;;;;;;;;;;;;;;;;8318383;28;27268;-76
2023/02/12 00:17:33;;;;;;;;;;;;;;;;;;8315303;28;27417;-77
2023/02/12 00:21:34;;;;;;;;;;;;;;;;;;8325268;28;27464;-77
2023/02/12 00:25:34;;;;;;;;;;;;;;;;;;8322049;28;27797;-76
2023/02/12 00:29:34;;;;;;;;;;;;;;;;;;8319423;28;27480;-77
2023/02/12 00:33:34;;;;;;;;;;;;;;;;;;8324303;28;27502;-77
2023/02/12 00:37:34;;;;;;;;;;;;;;;;;;8318987;28;27797;-77
2023/02/12 00:41:34;;;;;;;;;;;;;;;;;;8321379;28;27492;-76
2023/02/12 00:45:36;;;;;;;;;;;;;;;;;;8310648;28;28386;-76
2023/02/12 00:49:37;;;;;;;;;;;;;;;;;;8318873;28;29630;-77
2023/02/12 00:53:37;;;;;;;;;;;;;;;;;;8296154;28;30023;-76
2023/02/12 00:57:37;;;;;;;;;;;;;;;;;;8326910;28;27848;-76
2023/02/12 01:01:37;;;;;;;;;;;;;;;;;;8317571;28;27600;-76
2023/02/12 01:05:37;;;;;;;;;;;;;;;;;;8315536;28;27443;-77
2023/02/12 01:09:37;;;;;;;;;;;;;;;;;;8314431;28;29052;-75
2023/02/12 01:13:37;;;;;;;;;;;;;;;;;;8296693;28;30283;-77
2023/02/12 01:17:37;;;;;;;;;;;;;;;;;;8308970;28;27337;-76
2023/02/12 01:21:37;;;;;;;;;;;;;;;;;;8309268;28;27846;-76
2023/02/12 01:25:38;;;;;;;;;;;;;;;;;;8316757;28;28190;-76
2023/02/12 01:29:38;;;;;;;;;;;;;;;;;;8317069;28;27596;-75
2023/02/12 01:33:38;;;;;;;;;;;;;;;;;;8314802;28;27251;-76
2023/02/12 01:37:38;;;;;;;;;;;;;;;;;;8315833;28;28993;-76
2023/02/12 01:41:39;;;;;;;;;;;;;;;;;;8296807;28;28944;-76
2023/02/12 01:45:40;;;;;;;;;;;;;;;;;;8314531;28;27856;-76
2023/02/12 01:49:40;;;;;;;;;;;;;;;;;;8312737;28;27345;-74
2023/02/12 01:53:40;;;;;;;;;;;;;;;;;;8311943;28;27672;-76
2023/02/12 01:57:40;;;;;;;;;;;;;;;;;;8312308;28;27307;-74
2023/02/12 02:01:40;;;;;;;;;;;;;;;;;;8294601;28;28559;-74
2023/02/12 02:05:40;;;;;;;;;;;;;;;;;;8313634;28;28112;-76
2023/02/12 02:09:40;;;;;;;;;;;;;;;;;;8299351;28;29727;-74
2023/02/12 02:17:59;;;;;;;;;;;;;;;;;;8310645;28;27590;-76
2023/02/12 02:21:59;;;;;;;;;;;;;;;;;;8313870;28;27633;-76
2023/02/12 02:25:59;;;;;;;;;;;;;;;;;;8319750;28;27415;-77
2023/02/12 02:29:59;;;;;;;;;;;;;;;;;;8316857;28;27615;-75
2023/02/12 02:33:59;;;;;;;;;;;;;;;;;;8329105;28;28139;-76
2023/02/12 02:37:59;;;;;;;;;;;;;;;;;;8322945;28;27537;-76
2023/02/12 02:41:59;;;;;;;;;;;;;;;;;;8317919;28;28827;-75
2023/02/12 02:45:59;;;;;;;;;;;;;;;;;;8323196;28;27774;-76
2023/02/12 02:49:59;;;;;;;;;;;;;;;;;;8292217;28;28942;-75
2023/02/12 02:54:00;;;;;;;;;;;;;;;;;;8308168;28;28858;-77
2023/02/12 02:58:00;;;;;;;;;;;;;;;;;;8319552;28;29593;-77
2023/02/12 03:02:00;;;;;;;;;;;;;;;;;;8318743;28;27383;-76
2023/02/12 03:06:00;;;;;;;;;;;;;;;;;;8326974;28;27243;-76
2023/02/12 03:10:00;;;;;;;;;;;;;;;;;;8317498;28;29691;-76
2023/02/12 03:14:00;;;;;;;;;;;;;;;;;;8322345;28;27787;-75
2023/02/12 03:18:00;;;;;;;;;;;;;;;;;;8304615;28;28782;-76
2023/02/12 03:22:00;;;;;;;;;;;;;;;;;;8311322;28;27548;-76
2023/02/12 03:26:01;;;;;;;;;;;;;;;;;;8317729;28;27213;-76
2023/02/12 03:30:02;;;;;;;;;;;;;;;;;;8315310;28;28011;-74
2023/02/12 03:34:02;;;;;;;;;;;;;;;;;;8318459;28;28699;-75
2023/02/12 03:38:02;;;;;;;;;;;;;;;;;;8301869;28;30387;-76
2023/02/12 03:42:02;;;;;;;;;;;;;;;;;;8321599;28;27479;-74
2023/02/12 03:46:02;;;;;;;;;;;;;;;;;;8324627;28;27485;-74
2023/02/12 03:50:02;;;;;;;;;;;;;;;;;;8316625;28;27530;-75
2023/02/12 03:54:03;;;;;;;;;;;;;;;;;;8296067;28;28809;-76
2023/02/12 03:58:03;;;;;;;;;;;;;;;;;;8321660;28;27397;-74
2023/02/12 04:02:03;;;;;;;;;;;;;;;;;;8318087;28;27591;-76
2023/02/12 04:06:04;;;;;;;;;;;;;;;;;;8320742;28;27931;-76
2023/02/12 04:10:04;;;;;;;;;;;;;;;;;;8318076;28;28682;-77
2023/02/12 04:14:04;;;;;;;;;;;;;;;;;;8315859;28;27264;-76
2023/02/12 04:18:04;;;;;;;;;;;;;;;;;;8320150;28;27943;-77
2023/02/12 04:22:04;;;;;;;;;;;;;;;;;;8313033;28;27421;-76
2023/02/12 04:26:04;;;;;;;;;;;;;;;;;;8299697;28;28668;-76
2023/02/12 04:30:04;;;;;;;;;;;;;;;;;;8318380;28;27232;-76
2023/02/12 04:34:05;;;;;;;;;;;;;;;;;;8322591;28;27430;-75
2023/02/12 04:38:05;;;;;;;;;;;;;;;;;;8309530;28;29001;-76
2023/02/12 04:42:05;;;;;;;;;;;;;;;;;;8320009;28;27527;-77
2023/02/12 04:46:05;;;;;;;;;;;;;;;;;;8318331;28;27215;-75
2023/02/12 04:50:05;;;;;;;;;;;;;;;;;;8298627;28;28591;-76
2023/02/12 04:54:05;;;;;;;;;;;;;;;;;;8311666;28;28152;-76
2023/02/12 04:58:05;;;;;;;;;;;;;;;;;;8297748;28;29601;-74
2023/02/12 05:02:05;;;;;;;;;;;;;;;;;;8313638;28;27687;-75
2023/02/12 05:06:05;;;;;;;;;;;;;;;;;;8303705;28;30079;-76
2023/02/12 05:10:06;;;;;;;;;;;;;;;;;;8311956;28;28540;-76
2023/02/12 05:14:06;;;;;;;;;;;;;;;;;;8318830;28;27156;-75
2023/02/12 05:18:06;;;;;;;;;;;;;;;;;;8320896;28;27957;-76
2023/02/12 05:22:06;;;;;;;;;;;;;;;;;;8314217;28;27612;-76
2023/02/12 05:26:06;;;;;;;;;;;;;;;;;;8309096;28;27835;-77
2023/02/12 05:30:08;;;;;;;;;;;;;;;;;;8309359;28;27218;-77
2023/02/12 05:34:08;;;;;;;;;;;;;;;;;;8313845;28;27347;-76
2023/02/12 05:38:08;;;;;;;;;;;;;;;;;;8325293;28;27324;-77
2023/02/12 05:42:08;;;;;;;;;;;;;;;;;;8313508;28;28006;-76
2023/02/12 05:46:08;;;;;;;;;;;;;;;;;;8323691;28;27214;-82
2023/02/12 05:50:08;;;;;;;;;;;;;;;;;;8329677;28;28258;-82
2023/02/12 05:54:08;;;;;;;;;;;;;;;;;;8330251;28;27140;-82
2023/02/12 05:58:08;;;;;;;;;;;;;;;;;;8325118;28;28491;-79
2023/02/12 06:02:09;;;;;;;;;;;;;;;;;;8326032;28;27562;-82
2023/02/12 06:06:09;;;;;;;;;;;;;;;;;;8331982;28;27490;-80
2023/02/12 06:10:09;;;;;;;;;;;;;;;;;;8326628;28;27211;-81
2023/02/12 06:14:09;;;;;;;;;;;;;;;;;;8315084;28;30888;-85
2023/02/12 06:18:09;;;;;;;;;;;;;;;;;;8315376;28;28719;-80
2023/02/12 06:22:09;;;;;;;;;;;;;;;;;;8323676;28;28660;-81
2023/02/12 06:26:09;;;;;;;;;;;;;;;;;;8323209;28;28782;-82
2023/02/12 06:30:09;;;;;;;;;;;;;;;;;;8327528;28;28180;-82
2023/02/12 06:34:09;;;;;;;;;;;;;;;;;;8331404;28;27393;-81
2023/02/12 06:38:09;;;;;;;;;;;;;;;;;;8309772;28;28512;-82
2023/02/12 06:42:09;;;;;;;;;;;;;;;;;;8325439;28;27459;-84
2023/02/12 06:46:09;;;;;;;;;;;;;;;;;;8331588;28;28588;-79
2023/02/12 06:50:10;;;;;;;;;;;;;;;;;;8328899;28;27197;-80
2023/02/12 06:54:10;;;;;;;;;;;;;;;;;;8326041;28;27696;-80
2023/02/12 06:58:10;;;;;;;;;;;;;;;;;;8327205;28;27898;-81
2023/02/12 07:02:10;;;;;;;;;;;;;;;;;;8327506;28;27513;-84
2023/02/12 07:06:10;;;;;;;;;;;;;;;;;;8333707;28;27759;-81
2023/02/12 07:10:10;;;;;;;;;;;;;;;;;;8332916;28;28588;-80
2023/02/12 07:14:10;;;;;;;;;;;;;;;;;;8335751;28;27301;-84
2023/02/12 07:18:10;;;;;;;;;;;;;;;;;;8335491;28;27181;-85
2023/02/12 07:22:10;;;;;;;;;;;;;;;;;;8343401;28;27232;-82
2023/02/12 07:26:10;;;;;;;;;;;;;;;;;;8317532;28;28600;-82
2023/02/12 07:30:10;;;;;;;;;;;;;;;;;;8320223;28;28879;-83
2023/02/12 07:34:10;;;;;;;;;;;;;;;;;;8323092;28;27386;-84
2023/02/12 07:38:11;;;;;;;;;;;;;;;;;;8335630;28;28674;-85
2023/02/12 07:42:13;;;;;;;;;;;;;;;;;;8318777;28;28778;-81
2023/02/12 07:46:15;;;;;;;;;;;;;;;;;;8333062;28;27390;-86
2023/02/12 07:50:15;;;;;;;;;;;;;;;;;;8329796;28;28722;-80
2023/02/12 07:54:15;;;;;;;;;;;;;;;;;;8337780;28;28013;-82
2023/02/12 07:58:15;;;;;;;;;;;;;;;;;;8335327;28;27524;-83
2023/02/12 08:02:15;;;;;;;;;;;;;;;;;;8337376;28;28623;-85
2023/02/12 08:06:15;;;;;;;;;;;;;;;;;;8337427;28;27197;-83
2023/02/12 08:10:18;;;;;;;;;;;;;;;;;;8322809;28;28773;-83
2023/02/12 08:14:19;;;;;;;;;;;;;;;;;;8336233;28;28616;-83
2023/02/12 08:18:19;;;;;;;;;;;;;;;;;;8337567;28;27319;-82
2023/02/12 08:22:19;;;;;;;;;;;;;;;;;;8328941;28;28871;-82
2023/02/12 08:26:19;;;;;;;;;;;;;;;;;;8336203;28;27135;-82
2023/02/12 08:30:19;;;;;;;;;;;;;;;;;;8329886;28;28574;-82
2023/02/12 08:34:19;;;;;;;;;;;;;;;;;;8323499;28;28818;-81
2023/02/12 08:38:19;;;;;;;;;;;;;;;;;;8327438;28;27775;-81
2023/02/12 08:42:19;;;;;;;;;;;;;;;;;;8331711;28;28514;-79
2023/02/12 08:46:19;;;;;;;;;;;;;;;;;;8313802;28;28503;-80
2023/02/12 08:50:19;;;;;;;;;;;;;;;;;;8328499;28;28790;-82
2023/02/12 08:54:20;;;;;;;;;;;;;;;;;;8326417;28;28460;-81
2023/02/12 08:58:20;;;;;;;;;;;;;;;;;;8337149;28;28703;-80
2023/02/12 09:02:20;;;;;;;;;;;;;;;;;;8329658;28;27229;-80
2023/02/12 09:06:20;;;;;;;;;;;;;;;;;;8323930;28;30076;-79
2023/02/12 09:10:20;;;;;;;;;;;;;;;;;;8338680;28;27422;-80
2023/02/12 09:14:23;;;;;;;;;;;;;;;;;;8332173;28;27292;-80
2023/02/12 09:18:23;;;;;;;;;;;;;;;;;;8331339;28;28533;-85
2023/02/12 09:22:23;;;;;;;;;;;;;;;;;;8332340;28;27190;-84
2023/02/12 09:26:27;;;;;;;;;;;;;;;;;;8333999;28;27127;-83
2023/02/12 09:30:27;;;;;;;;;;;;;;;;;;8315774;28;28245;-80
2023/02/12 09:34:27;;;;;;;;;;;;;;;;;;8308074;28;28847;-80
2023/02/12 09:38:27;;;;;;;;;;;;;;;;;;8326682;28;28096;-80
2023/02/12 09:42:27;;;;;;;;;;;;;;;;;;8327861;28;27664;-80
2023/02/12 09:46:27;;;;;;;;;;;;;;;;;;8328672;28;27313;-79
2023/02/12 09:50:27;;;;;;;;;;;;;;;;;;8307499;28;29748;-80
2023/02/12 09:54:27;;;;;;;;;;;;;;;;;;8333096;28;27308;-81
2023/02/12 09:58:28;;;;;;;;;;;;;;;;;;8334344;28;27282;-79
2023/02/12 10:02:28;;;;;;;;;;;;;;;;;;8324946;28;28480;-80
2023/02/12 10:06:28;;;;;;;;;;;;;;;;;;8323697;28;27508;-81
2023/02/12 10:10:28;;;;;;;;;;;;;;;;;;8318506;28;29832;-82
2023/02/12 10:14:28;;;;;;;;;;;;;;;;;;8330707;28;28987;-82
2023/02/12 10:18:28;;;;;;;;;;;;;;;;;;8336533;28;28773;-84
2023/02/12 10:22:28;;;;;;;;;;;;;;;;;;8332788;28;27147;-82
2023/02/12 10:26:28;;;;;;;;;;;;;;;;;;8332399;28;27088;-83
2023/02/12 10:30:29;;;;;;;;;;;;;;;;;;8313975;28;29855;-82
2023/02/12 10:34:29;;;;;;;;;;;;;;;;;;8319511;28;27224;-82
2023/02/12 10:38:29;;;;;;;;;;;;;;;;;;8330177;28;28422;-80
2023/02/12 10:42:29;;;;;;;;;;;;;;;;;;8337951;28;27992;-81
2023/02/12 10:46:29;;;;;;;;;;;;;;;;;;8325262;28;28593;-82
2023/02/12 10:50:29;;;;;;;;;;;;;;;;;;8330786;28;28903;-80
2023/02/12 10:54:29;;;;;;;;;;;;;;;;;;8319140;28;28171;-80
2023/02/12 10:58:29;;;;;;;;;;;;;;;;;;8330357;28;27806;-80
2023/02/12 11:02:29;;;;;;;;;;;;;;;;;;8330925;28;28568;-80
2023/02/12 11:06:29;;;;;;;;;;;;;;;;;;8330196;28;28560;-81
2023/02/12 11:10:30;;;;;;;;;;;;;;;;;;8330709;28;27172;-82
2023/02/12 11:14:30;;;;;;;;;;;;;;;;;;8332471;28;28884;-82
2023/02/12 11:18:31;;;;;;;;;;;;;;;;;;8318844;28;28253;-81
2023/02/12 11:22:31;;;;;;;;;;;;;;;;;;8337596;28;28536;-84
2023/02/12 11:26:32;;;;;;;;;;;;;;;;;;8316957;28;29097;-79
2023/02/12 11:30:32;;;;;;;;;;;;;;;;;;8335610;28;27255;-83
2023/02/12 11:34:32;;;;;;;;;;;;;;;;;;8334443;28;27188;-83
2023/02/12 11:38:32;;;;;;;;;;;;;;;;;;8327836;28;28743;-79
2023/02/12 11:42:32;;;;;;;;;;;;;;;;;;8335992;28;28119;-80
2023/02/12 11:46:32;;;;;;;;;;;;;;;;;;8332995;28;27965;-79
2023/02/12 11:50:32;;;;;;;;;;;;;;;;;;8324518;28;29137;-80
2023/02/12 11:54:33;;;;;;;;;;;;;;;;;;8336611;28;27765;-80
2023/02/12 11:58:33;;;;;;;;;;;;;;;;;;8330330;28;27172;-80
2023/02/12 12:02:34;;;;;;;;;;;;;;;;;;8336132;28;27556;-81
2023/02/12 12:06:34;;;;;;;;;;;;;;;;;;8336890;28;28757;-80
2023/02/12 12:10:34;;;;;;;;;;;;;;;;;;8335901;28;27579;-81
2023/02/12 12:19:51;;;;;;;;;;;;;;;;;;8331984;28;27580;-79
2023/02/12 12:23:13;;;;;;;;;;;;;;;;;;8330355;28;28030;-80
2023/02/12 12:28:01;;;;;;;;;;;;;;;;;;8324708;28;27419;-83
2023/02/12 12:31:34;;;;;;;;;;;;;;;;;;8328336;28;27738;-80
2023/02/12 12:35:34;;;;;;;;;;;;;;;;;;8341726;28;27244;-81
2023/02/12 12:39:34;;;;;;;;;;;;;;;;;;8335967;28;27811;-81
2023/02/12 12:43:34;;;;;;;;;;;;;;;;;;8323218;28;28713;-81
2023/02/12 12:47:34;;;;;;;;;;;;;;;;;;8309834;28;28120;-83
2023/02/12 12:51:34;;;;;;;;;;;;;;;;;;8332966;28;28178;-81
2023/02/12 12:55:34;;;;;;;;;;;;;;;;;;8321327;28;27717;-80
2023/02/12 12:59:34;;;;;;;;;;;;;;;;;;8333854;28;27366;-80
2023/02/12 13:03:34;;;;;;;;;;;;;;;;;;8325483;28;28534;-80
2023/02/12 13:07:35;;;;;;;;;;;;;;;;;;8331436;28;28267;-80
2023/02/12 13:11:35;;;;;;;;;;;;;;;;;;8313674;28;28709;-80
2023/02/12 13:15:35;;;;;;;;;;;;;;;;;;8325146;28;28197;-80
2023/02/12 13:19:35;;;;;;;;;;;;;;;;;;8305549;28;28428;-81
2023/02/12 13:23:35;;;;;;;;;;;;;;;;;;8337577;28;27124;-82
2023/02/12 13:27:35;;;;;;;;;;;;;;;;;;8329865;28;27292;-81
2023/02/12 13:31:35;;;;;;;;;;;;;;;;;;8331938;28;27329;-85
2023/02/12 13:35:35;;;;;;;;;;;;;;;;;;8315703;28;29609;-82
2023/02/12 13:39:35;;;;;;;;;;;;;;;;;;8330863;28;27446;-83
2023/02/12 13:43:35;;;;;;;;;;;;;;;;;;8327957;28;28583;-81
2023/02/12 13:47:35;;;;;;;;;;;;;;;;;;8329827;28;28861;-83
2023/02/12 13:51:35;;;;;;;;;;;;;;;;;;8340417;28;27768;-83
2023/02/12 13:55:36;;;;;;;;;;;;;;;;;;8341418;28;28296;-82
2023/02/12 13:59:36;;;;;;;;;;;;;;;;;;8335911;28;28216;-83
2023/02/12 14:03:36;;;;;;;;;;;;;;;;;;8330621;28;27281;-84
2023/02/12 14:07:36;;;;;;;;;;;;;;;;;;8334949;28;27300;-83
2023/02/12 14:11:36;;;;;;;;;;;;;;;;;;8329254;28;28479;-82
2023/02/12 14:15:36;;;;;;;;;;;;;;;;;;8328581;28;27293;-83
2023/02/12 14:19:36;;;;;;;;;;;;;;;;;;8332900;28;27171;-80
2023/02/12 14:23:36;;;;;;;;;;;;;;;;;;8326353;28;28654;-81
2023/02/12 14:27:36;;;;;;;;;;;;;;;;;;8333632;28;27693;-81
2023/02/12 14:31:37;;;;;;;;;;;;;;;;;;8316033;28;28365;-81
2023/02/12 14:35:37;;;;;;;;;;;;;;;;;;8329156;28;27048;-83
2023/02/12 14:39:37;;;;;;;;;;;;;;;;;;8315884;28;28664;-82
2023/02/12 14:47:56;;;;;;;;;;;;;;;;;;8329625;28;27332;-81
2023/02/12 14:51:56;;;;;;;;;;;;;;;;;;8328851;28;28624;-82
2023/02/12 14:55:56;;;;;;;;;;;;;;;;;;8335428;28;29886;-82
2023/02/12 14:59:57;;;;;;;;;;;;;;;;;;8329989;28;27059;-84
2023/02/12 15:03:57;;;;;;;;;;;;;;;;;;8309550;28;28548;-83
2023/02/12 15:07:57;;;;;;;;;;;;;;;;;;8313490;28;28473;-83
2023/02/12 15:11:58;;;;;;;;;;;;;;;;;;8335913;28;27166;-83
2023/02/12 15:15:58;;;;;;;;;;;;;;;;;;8325318;28;27089;-84
2023/02/12 15:19:58;;;;;;;;;;;;;;;;;;8332713;28;27320;-83
2023/02/12 15:23:58;;;;;;;;;;;;;;;;;;8329713;28;28472;-82
2023/02/12 15:27:58;;;;;;;;;;;;;;;;;;8346069;28;27339;-84
2023/02/12 15:31:59;;;;;;;;;;;;;;;;;;8334983;28;27388;-81
2023/02/12 15:35:59;;;;;;;;;;;;;;;;;;8336840;28;27627;-82
2023/02/12 15:39:59;;;;;;;;;;;;;;;;;;8339983;28;27286;-81
2023/02/12 15:43:59;;;;;;;;;;;;;;;;;;8334994;28;27010;-82
2023/02/12 15:47:59;;;;;;;;;;;;;;;;;;8337666;28;28572;-81
2023/02/12 15:51:59;;;;;;;;;;;;;;;;;;8331595;28;28937;-81
2023/02/12 15:55:59;;;;;;;;;;;;;;;;;;8330987;28;28510;-81
2023/02/12 15:59:59;;;;;;;;;;;;;;;;;;8342812;28;27145;-82
2023/02/12 16:04:00;;;;;;;;;;;;;;;;;;8332796;28;28752;-82
2023/02/12 16:08:00;;;;;;;;;;;;;;;;;;8332294;28;28832;-81
2023/02/12 16:12:00;;;;;;;;;;;;;;;;;;8331414;28;27104;-82
2023/02/12 16:16:00;;;;;;;;;;;;;;;;;;8340172;28;27620;-83
2023/02/12 16:20:00;;;;;;;;;;;;;;;;;;8340575;28;28972;-85
2023/02/12 16:24:00;;;;;;;;;;;;;;;;;;8335624;28;27080;-82
2023/02/12 16:28:00;;;;;;;;;;;;;;;;;;8336079;28;27367;-81
2023/02/12 16:32:00;;;;;;;;;;;;;;;;;;8336059;28;27754;-80
2023/02/12 16:36:01;;;;;;;;;;;;;;;;;;8345085;28;27334;-80
2023/02/12 16:40:01;;;;;;;;;;;;;;;;;;8334536;28;27243;-80
2023/02/12 16:44:01;;;;;;;;;;;;;;;;;;8315846;28;27710;-81
2023/02/12 16:48:04;;;;;;;;;;;;;;;;;;8341001;28;28880;-81
2023/02/12 16:52:04;;;;;;;;;;;;;;;;;;8335652;28;27018;-82
2023/02/12 16:56:04;;;;;;;;;;;;;;;;;;8317972;28;29775;-83
2023/02/12 17:00:04;;;;;;;;;;;;;;;;;;8333184;28;27738;-81
2023/02/12 17:04:05;;;;;;;;;;;;;;;;;;8312914;28;29862;-82
2023/02/12 17:08:07;;;;;;;;;;;;;;;;;;8329004;28;47753;-81
2023/02/12 17:12:07;;;;;;;;;;;;;;;;;;8336456;28;27250;-80
2023/02/12 17:16:07;;;;;;;;;;;;;;;;;;8334871;28;27106;-80
2023/02/12 17:20:07;;;;;;;;;;;;;;;;;;8338726;28;27118;-81
2023/02/12 17:24:08;;;;;;;;;;;;;;;;;;8328877;28;28047;-80
2023/02/12 17:28:09;;;;;;;;;;;;;;;;;;8338542;28;27777;-81
2023/02/12 17:32:09;;;;;;;;;;;;;;;;;;8330491;28;28521;-81
2023/02/12 17:36:09;;;;;;;;;;;;;;;;;;8331789;28;26979;-81
2023/02/12 17:40:10;;;;;;;;;;;;;;;;;;8335698;28;27276;-81
2023/02/12 17:44:12;;;;;;;;;;;;;;;;;;8326585;28;28558;-82
2023/02/12 17:48:12;;;;;;;;;;;;;;;;;;8328187;28;27565;-83
2023/02/12 17:52:12;;;;;;;;;;;;;;;;;;8307188;28;29885;-84
2023/02/12 17:56:12;;;;;;;;;;;;;;;;;;8333672;28;27449;-84
2023/02/12 18:00:12;;;;;;;;;;;;;;;;;;8330471;28;27113;-84
2023/02/12 18:04:12;;;;;;;;;;;;;;;;;;8327242;28;29095;-82
2023/02/12 18:08:12;;;;;;;;;;;;;;;;;;8319475;28;28223;-85
2023/02/12 18:12:12;;;;;;;;;;;;;;;;;;8333681;28;28801;-84
2023/02/12 18:16:13;;;;;;;;;;;;;;;;;;8331251;28;27442;-87
2023/02/12 18:20:13;;;;;;;;;;;;;;;;;;8327953;28;28527;-90
2023/02/12 18:24:13;;;;;;;;;;;;;;;;;;8332889;28;27449;-81
2023/02/12 18:28:13;;;;;;;;;;;;;;;;;;8337895;28;27545;-79
2023/02/12 18:32:14;;;;;;;;;;;;;;;;;;8317552;28;28747;-78
2023/02/12 18:36:14;;;;;;;;;;;;;;;;;;8327392;28;27920;-81
2023/02/12 18:40:15;;;;;;;;;;;;;;;;;;8332038;28;27331;-84
2023/02/12 18:44:15;;;;;;;;;;;;;;;;;;8334342;28;27502;-81
2023/02/12 18:48:15;;;;;;;;;;;;;;;;;;8321981;28;28134;-84
2023/02/12 18:52:15;;;;;;;;;;;;;;;;;;8336412;28;28412;-82
2023/02/12 18:56:15;;;;;;;;;;;;;;;;;;8317598;28;29000;-82
2023/02/12 19:00:15;;;;;;;;;;;;;;;;;;8334487;28;27191;-81
2023/02/12 19:04:15;;;;;;;;;;;;;;;;;;8334132;28;28537;-83
2023/02/12 19:08:15;;;;;;;;;;;;;;;;;;8336431;28;27809;-83
2023/02/12 19:12:15;;;;;;;;;;;;;;;;;;8336526;28;27273;-84
2023/02/12 19:16:15;;;;;;;;;;;;;;;;;;8339275;28;28327;-83
2023/02/12 19:20:15;;;;;;;;;;;;;;;;;;8311490;28;28407;-85
2023/02/12 19:24:16;;;;;;;;;;;;;;;;;;8337082;28;28488;-84
2023/02/12 19:28:16;;;;;;;;;;;;;;;;;;8336502;28;27642;-82
2023/02/12 19:32:16;;;;;;;;;;;;;;;;;;8330502;28;27284;-82
2023/02/12 19:36:16;;;;;;;;;;;;;;;;;;8318649;28;28130;-80
2023/02/12 19:40:16;;;;;;;;;;;;;;;;;;8334293;28;27128;-83
2023/02/12 19:44:16;;;;;;;;;;;;;;;;;;8325953;28;28612;-82
2023/02/12 19:48:16;;;;;;;;;;;;;;;;;;8338011;28;27334;-80
2023/02/12 19:52:17;;;;;;;;;;;;;;;;;;8345435;28;27206;-80
2023/02/12 19:56:17;;;;;;;;;;;;;;;;;;8330032;28;27915;-81
2023/02/12 20:00:17;;;;;;;;;;;;;;;;;;8338452;28;28741;-80
2023/02/12 20:04:17;;;;;;;;;;;;;;;;;;8340193;28;28975;-82
2023/02/12 20:08:17;;;;;;;;;;;;;;;;;;8315054;28;28561;-82
2023/02/12 20:12:17;;;;;;;;;;;;;;;;;;8330179;28;28749;-82
2023/02/12 20:16:17;;;;;;;;;;;;;;;;;;8330608;28;27829;-84
2023/02/12 20:20:18;;;;;;;;;;;;;;;;;;8309788;28;27196;-82
2023/02/12 20:24:18;;;;;;;;;;;;;;;;;;8317836;28;29790;-83
2023/02/12 20:28:18;;;;;;;;;;;;;;;;;;8310990;28;28291;-84
2023/02/12 20:32:18;;;;;;;;;;;;;;;;;;8319363;28;29556;-84
2023/02/12 20:36:18;;;;;;;;;;;;;;;;;;8327182;28;28737;-84
2023/02/12 20:40:18;;;;;;;;;;;;;;;;;;8328995;28;28123;-84
2023/02/12 20:44:18;;;;;;;;;;;;;;;;;;8306233;28;27964;-82
2023/02/12 20:48:20;;;;;;;;;;;;;;;;;;8323359;28;28910;-81
2023/02/12 20:52:20;;;;;;;;;;;;;;;;;;8312089;28;29045;-83
2023/02/12 20:56:20;;;;;;;;;;;;;;;;;;8333839;28;27580;-83
2023/02/12 21:00:20;;;;;;;;;;;;;;;;;;8319254;28;28827;-83
2023/02/12 21:04:20;;;;;;;;;;;;;;;;;;8327880;28;28691;-84
2023/02/12 21:08:20;;;;;;;;;;;;;;;;;;8327466;28;27450;-80
2023/02/12 21:12:20;;;;;;;;;;;;;;;;;;8324377;28;27267;-82
2023/02/12 21:16:20;;;;;;;;;;;;;;;;;;8331583;28;28402;-81
2023/02/12 21:20:20;;;;;;;;;;;;;;;;;;8328548;28;27441;-81
2023/02/12 21:24:21;;;;;;;;;;;;;;;;;;8324728;28;27373;-83
2023/02/12 21:28:21;;;;;;;;;;;;;;;;;;8325344;28;27244;-81
2023/02/12 21:32:21;;;;;;;;;;;;;;;;;;8323377;28;28456;-81
2023/02/12 21:36:21;;;;;;;;;;;;;;;;;;8324608;28;27301;-82
2023/02/12 21:40:21;;;;;;;;;;;;;;;;;;8326327;28;27264;-81
2023/02/12 21:44:21;;;;;;;;;;;;;;;;;;8325317;28;28740;-83
2023/02/12 21:48:21;;;;;;;;;;;;;;;;;;8327082;28;28460;-83
2023/02/12 21:52:21;;;;;;;;;;;;;;;;;;8326527;28;27219;-83
2023/02/12 21:56:21;;;;;;;;;;;;;;;;;;8325032;28;27457;-87
2023/02/12 22:00:21;;;;;;;;;;;;;;;;;;8323531;28;27715;-85
2023/02/12 22:04:22;;;;;;;;;;;;;;;;;;8322537;28;27412;-85
2023/02/12 22:08:22;;;;;;;;;;;;;;;;;;8320954;28;28469;-85
2023/02/12 22:12:22;;;;;;;;;;;;;;;;;;8321497;28;28925;-86
2023/02/12 22:16:22;;;;;;;;;;;;;;;;;;8327886;28;28817;-83
2023/02/12 22:20:22;;;;;;;;;;;;;;;;;;8330997;28;27379;-84
2023/02/12 22:24:22;;;;;;;;;;;;;;;;;;8326827;28;27175;-87
2023/02/12 22:28:22;;;;;;;;;;;;;;;;;;8328574;28;27537;-84
2023/02/12 22:32:22;;;;;;;;;;;;;;;;;;8327700;28;28237;-83
2023/02/12 22:36:23;;;;;;;;;;;;;;;;;;8329563;28;28784;-83
2023/02/12 22:40:24;;;;;;;;;;;;;;;;;;8332860;28;27055;-82
2023/02/12 22:44:24;;;;;;;;;;;;;;;;;;8335627;28;27313;-82
2023/02/12 22:48:24;;;;;;;;;;;;;;;;;;8307980;28;28952;-81
2023/02/12 22:52:24;;;;;;;;;;;;;;;;;;8328045;28;28177;-81
2023/02/12 22:56:24;;;;;;;;;;;;;;;;;;8320141;28;29587;-83
2023/02/12 23:00:24;;;;;;;;;;;;;;;;;;8326736;28;27229;-80
2023/02/12 23:04:24;;;;;;;;;;;;;;;;;;8324106;28;27411;-82
2023/02/12 23:08:24;;;;;;;;;;;;;;;;;;8304987;28;30094;-86
2023/02/12 23:12:24;;;;;;;;;;;;;;;;;;8331549;28;27475;-81
2023/02/12 23:16:24;;;;;;;;;;;;;;;;;;8331104;28;29020;-87
2023/02/12 23:20:24;;;;;;;;;;;;;;;;;;8328955;28;28455;-87
2023/02/12 23:24:25;;;;;;;;;;;;;;;;;;8337518;28;28205;-86
2023/02/12 23:28:25;;;;;;;;;;;;;;;;;;8331711;28;28519;-89
2023/02/12 23:32:25;;;;;;;;;;;;;;;;;;8334006;28;27656;-85
2023/02/12 23:36:25;;;;;;;;;;;;;;;;;;8333141;28;28146;-86
2023/02/12 23:40:25;;;;;;;;;;;;;;;;;;8317372;28;28935;-85
2023/02/12 23:44:25;;;;;;;;;;;;;;;;;;8327351;28;27825;-84
2023/02/12 23:48:25;;;;;;;;;;;;;;;;;;8333401;28;27164;-85
2023/02/12 23:52:25;;;;;;;;;;;;;;;;;;8316233;28;28562;-84
2023/02/12 23:56:25;;;;;;;;;;;;;;;;;;8335934;28;27084;-83
